Time;durP1;ratioP1;P1;durP2;ratioP2;P2;SDS_P1;SDS_P2;PMS_P1;PMS_P2;Temp;Humidity;BMP_temperature;BMP_pressure;BME280_temperature;BME280_humidity;BME280_pressure;Samples;Min_cycle;Max_cycle;Signal;HPM_P1;HPM_P2
2023/09/07 00:01:31;;;;;;;6.07;3.53;;;;;;;;;;10336446;28;20517;-64
2023/09/07 00:06:29;;;;;;;6.22;3.78;;;;;;;;;;10336976;28;20071;-63
2023/09/07 00:11:29;;;;;;;5.60;3.22;;;;;;;;;;10333136;28;20068;-64
2023/09/07 00:16:27;;;;;;;4.72;3.95;;;;;;;;;;10339264;28;20076;-64
2023/09/07 00:21:25;;;;;;;5.72;4.05;;;;;;;;;;10338648;28;20075;-64
2023/09/07 00:26:24;;;;;;;6.80;3.53;;;;;;;;;;10337554;28;20040;-64
2023/09/07 00:31:24;;;;;;;4.38;3.75;;;;;;;;;;10339180;28;20099;-65
2023/09/07 00:36:25;;;;;;;6.90;3.50;;;;;;;;;;10319312;28;20486;-63
2023/09/07 00:41:23;;;;;;;4.82;3.92;;;;;;;;;;10335507;28;20088;-63
2023/09/07 00:46:21;;;;;;;6.65;4.05;;;;;;;;;;10335899;28;20095;-64
2023/09/07 00:51:21;;;;;;;5.35;4.13;;;;;;;;;;10336565;28;20078;-63
2023/09/07 00:56:20;;;;;;;4.30;3.60;;;;;;;;;;10336881;28;20504;-64
2023/09/07 01:01:18;;;;;;;8.00;3.58;;;;;;;;;;10317296;28;20040;-63
2023/09/07 01:06:18;;;;;;;5.28;4.47;;;;;;;;;;10337339;28;20064;-63
2023/09/07 01:11:20;;;;;;;5.45;3.88;;;;;;;;;;10331915;28;20452;-63
2023/09/07 01:16:21;;;;;;;10.67;3.97;;;;;;;;;;10329369;28;20068;-63
2023/09/07 01:21:19;;;;;;;7.65;3.88;;;;;;;;;;10332575;28;21066;-63
2023/09/07 01:26:19;;;;;;;4.75;3.45;;;;;;;;;;10300835;28;20454;-63
2023/09/07 01:31:17;;;;;;;8.07;4.03;;;;;;;;;;10298080;28;20072;-63
2023/09/07 01:36:17;;;;;;;6.20;3.70;;;;;;;;;;10301443;28;20079;-63
2023/09/07 01:41:15;;;;;;;6.03;4.18;;;;;;;;;;10331272;28;20072;-63
2023/09/07 01:46:15;;;;;;;4.25;3.85;;;;;;;;;;10333309;28;20064;-63
2023/09/07 01:51:14;;;;;;;7.40;4.13;;;;;;;;;;10333119;28;20044;-63
2023/09/07 01:56:13;;;;;;;4.85;3.83;;;;;;;;;;10312855;28;20094;-63
2023/09/07 02:01:22;;;;;;;6.03;3.85;;;;;;;;;;10323819;28;20049;-64
2023/09/07 02:06:21;;;;;;;4.95;3.60;;;;;;;;;;10295876;28;20067;-64
2023/09/07 02:11:19;;;;;;;6.65;4.00;;;;;;;;;;10334620;28;20509;-64
2023/09/07 02:16:18;;;;;;;5.53;3.92;;;;;;;;;;10305203;28;20359;-63
2023/09/07 02:21:17;;;;;;;6.53;3.97;;;;;;;;;;10327018;28;20115;-63
2023/09/07 02:26:16;;;;;;;5.65;4.30;;;;;;;;;;10321466;28;20079;-63
2023/09/07 02:31:23;;;;;;;6.10;3.72;;;;;;;;;;10459078;27;20382;-64
2023/09/07 02:36:21;;;;;;;5.18;4.07;;;;;;;;;;10487796;27;20074;-64
2023/09/07 02:41:20;;;;;;;6.78;3.75;;;;;;;;;;10489884;27;20155;-64
2023/09/07 02:46:19;;;;;;;7.05;3.42;;;;;;;;;;10469419;27;20074;-64
2023/09/07 02:51:19;;;;;;;7.25;4.57;;;;;;;;;;10471071;27;20082;-64
2023/09/07 02:56:17;;;;;;;6.10;4.10;;;;;;;;;;10479573;27;20078;-62
2023/09/07 03:01:19;;;;;;;4.47;3.60;;;;;;;;;;10486634;27;20062;-63
2023/09/07 03:06:19;;;;;;;4.97;3.97;;;;;;;;;;10471431;27;20742;-63
2023/09/07 03:11:21;;;;;;;5.43;4.27;;;;;;;;;;10472228;27;20185;-64
2023/09/07 03:16:20;;;;;;;6.03;4.13;;;;;;;;;;10471146;27;20122;-63
2023/09/07 03:21:25;;;;;;;6.43;4.05;;;;;;;;;;10466826;27;20075;-64
2023/09/07 03:26:23;;;;;;;;;;;;;;;;;;10474688;27;20078;-65
2023/09/07 03:31:21;;;;;;;8.32;3.83;;;;;;;;;;10477009;27;19965;-65
2023/09/07 03:36:23;;;;;;;4.72;3.95;;;;;;;;;;10474545;27;20081;-65
2023/09/07 03:41:21;;;;;;;6.25;4.43;;;;;;;;;;10445753;27;20086;-64
2023/09/07 03:46:19;;;;;;;12.63;4.85;;;;;;;;;;10447574;27;20075;-64
2023/09/07 03:51:18;;;;;;;6.88;4.45;;;;;;;;;;10439568;27;20074;-64
2023/09/07 03:56:18;;;;;;;7.47;3.88;;;;;;;;;;10433467;27;20074;-64
2023/09/07 04:01:17;;;;;;;7.07;4.30;;;;;;;;;;10439429;27;20046;-64
2023/09/07 04:06:15;;;;;;;4.65;4.00;;;;;;;;;;10439944;27;20464;-61
2023/09/07 04:11:14;;;;;;;6.20;4.03;;;;;;;;;;10460966;27;20152;-63
2023/09/07 04:16:13;;;;;;;4.30;3.83;;;;;;;;;;10459291;27;20070;-63
2023/09/07 04:21:12;;;;;;;11.10;4.47;;;;;;;;;;10458285;27;20058;-63
2023/09/07 04:26:10;;;;;;;7.47;4.20;;;;;;;;;;10457131;27;20066;-63
2023/09/07 04:31:09;;;;;;;8.25;4.30;;;;;;;;;;10439652;27;20187;-63
2023/09/07 04:36:10;;;;;;;7.47;4.20;;;;;;;;;;10445328;27;20073;-62
2023/09/07 04:41:09;;;;;;;4.75;3.75;;;;;;;;;;10442845;27;20070;-63
2023/09/07 04:46:08;;;;;;;9.88;4.50;;;;;;;;;;10449491;27;20070;-63
2023/09/07 04:51:07;;;;;;;5.95;3.63;;;;;;;;;;10437552;27;20507;-64
2023/09/07 04:56:07;;;;;;;5.55;4.43;;;;;;;;;;10442730;27;20075;-63
2023/09/07 05:01:08;;;;;;;7.65;4.45;;;;;;;;;;10435731;27;20081;-63
2023/09/07 05:06:07;;;;;;;6.93;4.50;;;;;;;;;;10441846;27;20085;-62
2023/09/07 05:11:07;;;;;;;7.60;4.38;;;;;;;;;;10441600;27;20073;-61
2023/09/07 05:16:05;;;;;;;6.60;4.78;;;;;;;;;;10457893;27;20074;-62
2023/09/07 05:21:13;;;;;;;5.55;4.20;;;;;;;;;;10439877;27;20488;-62
2023/09/07 05:26:13;;;;;;;8.02;4.57;;;;;;;;;;10435765;27;20074;-63
2023/09/07 05:31:12;;;;;;;10.20;4.97;;;;;;;;;;10451230;27;20078;-62
2023/09/07 05:36:10;;;;;;;5.35;4.38;;;;;;;;;;10441880;27;20514;-62
2023/09/07 05:41:08;;;;;;;15.77;4.82;;;;;;;;;;10446404;27;20062;-62
2023/09/07 05:46:08;;;;;;;16.63;4.57;;;;;;;;;;10459937;27;20063;-62
2023/09/07 05:51:08;;;;;;;6.55;4.15;;;;;;;;;;10459517;27;20070;-62
2023/09/07 05:56:06;;;;;;;5.35;4.47;;;;;;;;;;10439715;27;20082;-61
2023/09/07 06:01:06;;;;;;;9.00;4.28;;;;;;;;;;10441611;27;20089;-62
2023/09/07 06:06:06;;;;;;;9.70;4.15;;;;;;;;;;10438230;27;20085;-62
2023/09/07 06:11:05;;;;;;;6.53;3.85;;;;;;;;;;10443459;27;20490;-62
2023/09/07 06:16:04;;;;;;;5.40;4.60;;;;;;;;;;10437585;27;20067;-62
2023/09/07 06:21:03;;;;;;;7.50;4.45;;;;;;;;;;10433047;27;20067;-63
2023/09/07 06:26:03;;;;;;;8.88;4.93;;;;;;;;;;10449860;27;20078;-62
2023/09/07 06:31:02;;;;;;;5.30;4.05;;;;;;;;;;10430669;27;20591;-63
2023/09/07 06:36:02;;;;;;;4.38;3.58;;;;;;;;;;10448041;27;20078;-63
2023/09/07 06:41:00;;;;;;;5.30;4.13;;;;;;;;;;10436685;27;20089;-64
2023/09/07 06:46:06;;;;;;;9.77;4.18;;;;;;;;;;10434502;27;20070;-65
2023/09/07 06:51:06;;;;;;;6.07;4.13;;;;;;;;;;10437533;27;20543;-63
2023/09/07 06:56:06;;;;;;;5.45;4.32;;;;;;;;;;10457014;27;20067;-63
2023/09/07 07:01:06;;;;;;;5.35;3.83;;;;;;;;;;10438391;27;20069;-62
2023/09/07 07:06:04;;;;;;;7.18;3.92;;;;;;;;;;10440141;27;20063;-63
2023/09/07 07:11:03;;;;;;;5.80;3.95;;;;;;;;;;10446306;27;20530;-63
2023/09/07 07:16:01;;;;;;;6.35;4.55;;;;;;;;;;10438944;27;20074;-64
2023/09/07 07:21:01;;;;;;;5.07;3.88;;;;;;;;;;10442126;27;20078;-63
2023/09/07 07:25:59;;;;;;;7.43;3.92;;;;;;;;;;10442038;27;20535;-63
2023/09/07 07:30:58;;;;;;;7.35;3.80;;;;;;;;;;10439792;27;20090;-63
2023/09/07 07:35:57;;;;;;;6.55;3.97;;;;;;;;;;10448853;27;20141;-63
2023/09/07 07:40:57;;;;;;;7.95;4.75;;;;;;;;;;10445436;27;20071;-63
2023/09/07 07:45:56;;;;;;;6.57;4.05;;;;;;;;;;10436332;27;20623;-63
2023/09/07 07:50:54;;;;;;;5.63;4.22;;;;;;;;;;10440891;27;20070;-63
2023/09/07 07:55:53;;;;;;;7.82;4.22;;;;;;;;;;10461893;27;20073;-64
2023/09/07 08:00:57;;;;;;;7.10;4.32;;;;;;;;;;10444305;27;20531;-63
2023/09/07 08:05:59;;;;;;;10.60;4.53;;;;;;;;;;10437625;27;20078;-64
2023/09/07 08:10:59;;;;;;;5.10;4.05;;;;;;;;;;10446896;27;20554;-63
2023/09/07 08:16:02;;;;;;;7.53;4.05;;;;;;;;;;10459219;27;20400;-64
2023/09/07 08:21:02;;;;;;;5.53;4.55;;;;;;;;;;10444166;27;20070;-64
2023/09/07 08:26:00;;;;;;;12.10;4.30;;;;;;;;;;10438112;27;20063;-63
2023/09/07 08:31:01;;;;;;;6.35;4.82;;;;;;;;;;10453439;27;20066;-64
2023/09/07 08:36:01;;;;;;;9.85;4.65;;;;;;;;;;10460278;27;20086;-63
2023/09/07 08:41:03;;;;;;;11.40;5.45;;;;;;;;;;10460416;27;20507;-62
2023/09/07 08:46:05;;;;;;;9.70;3.67;;;;;;;;;;10461429;27;20073;-66
2023/09/07 08:51:06;;;;;;;10.98;4.53;;;;;;;;;;10449341;27;20070;-66
2023/09/07 08:56:05;;;;;;;10.23;4.78;;;;;;;;;;10437732;27;20043;-65
2023/09/07 09:01:03;;;;;;;5.97;4.28;;;;;;;;;;10463017;27;20068;-66
2023/09/07 09:06:07;;;;;;;12.10;4.53;;;;;;;;;;10457637;27;20062;-65
2023/09/07 09:11:06;;;;;;;12.23;4.72;;;;;;;;;;10452144;27;20062;-66
2023/09/07 09:16:04;;;;;;;9.50;4.03;;;;;;;;;;10459745;27;20066;-66
2023/09/07 09:21:03;;;;;;;6.85;4.47;;;;;;;;;;10457371;27;20078;-66
2023/09/07 09:26:03;;;;;;;7.35;4.55;;;;;;;;;;10462962;27;20067;-66
2023/09/07 09:31:02;;;;;;;6.50;4.03;;;;;;;;;;10452884;27;20075;-65
2023/09/07 09:36:00;;;;;;;11.55;5.20;;;;;;;;;;10456506;27;20140;-64
2023/09/07 09:40:59;;;;;;;7.80;4.80;;;;;;;;;;10454235;27;20066;-65
2023/09/07 09:46:00;;;;;;;6.22;4.03;;;;;;;;;;10462162;27;20059;-65
2023/09/07 09:51:00;;;;;;;4.72;4.22;;;;;;;;;;10456500;27;20148;-66
2023/09/07 09:55:58;;;;;;;8.00;3.53;;;;;;;;;;10457955;27;20073;-65
2023/09/07 10:00:58;;;;;;;10.60;3.70;;;;;;;;;;10459559;27;20074;-66
2023/09/07 10:05:57;;;;;;;10.35;3.95;;;;;;;;;;10454017;27;20074;-65
2023/09/07 10:10:55;;;;;;;4.50;3.50;;;;;;;;;;10452429;27;20397;-65
2023/09/07 10:16:04;;;;;;;4.65;3.88;;;;;;;;;;10452158;27;20500;-65
2023/09/07 10:21:03;;;;;;;5.15;3.33;;;;;;;;;;10455753;27;20069;-65
2023/09/07 10:26:04;;;;;;;4.38;3.92;;;;;;;;;;10458004;27;20422;-65
2023/09/07 10:31:06;;;;;;;7.05;3.92;;;;;;;;;;10456837;27;20062;-66
2023/09/07 10:36:06;;;;;;;5.68;3.72;;;;;;;;;;10453504;27;20062;-65
2023/09/07 10:41:05;;;;;;;8.23;4.07;;;;;;;;;;10453927;27;20065;-64
2023/09/07 10:46:03;;;;;;;7.70;4.05;;;;;;;;;;10452144;27;20469;-65
2023/09/07 10:51:03;;;;;;;4.75;3.38;;;;;;;;;;10461241;27;20082;-65
2023/09/07 10:56:03;;;;;;;7.15;3.55;;;;;;;;;;10456922;27;20074;-65
2023/09/07 11:01:03;;;;;;;4.80;3.83;;;;;;;;;;10458889;27;20070;-65
2023/09/07 11:06:04;;;;;;;8.00;3.78;;;;;;;;;;10463657;27;20063;-65
2023/09/07 11:11:02;;;;;;;6.22;4.03;;;;;;;;;;10463077;27;20074;-64
2023/09/07 11:16:01;;;;;;;8.82;4.03;;;;;;;;;;10461356;27;20073;-65
2023/09/07 11:21:03;;;;;;;4.75;3.90;;;;;;;;;;10460659;27;20075;-66
2023/09/07 11:26:04;;;;;;;6.10;3.50;;;;;;;;;;10458960;27;20070;-65
2023/09/07 11:31:03;;;;;;;5.55;3.53;;;;;;;;;;10462719;27;20079;-65
2023/09/07 11:36:01;;;;;;;8.10;4.13;;;;;;;;;;10465943;27;20062;-65
2023/09/07 11:40:59;;;;;;;3.58;3.15;;;;;;;;;;10464186;27;20063;-66
2023/09/07 11:46:00;;;;;;;6.90;3.47;;;;;;;;;;10459558;27;20082;-65
2023/09/07 11:50:59;;;;;;;5.60;3.85;;;;;;;;;;10460285;27;20077;-66
2023/09/07 11:55:58;;;;;;;7.90;3.63;;;;;;;;;;10439697;27;20144;-66
2023/09/07 12:00:57;;;;;;;7.15;3.63;;;;;;;;;;10458631;27;20058;-65
2023/09/07 12:05:56;;;;;;;11.43;3.42;;;;;;;;;;10464168;27;20071;-66
2023/09/07 12:10:54;;;;;;;9.23;3.85;;;;;;;;;;10462887;27;20104;-64
2023/09/07 12:15:53;;;;;;;8.20;3.42;;;;;;;;;;10461204;27;20494;-64
2023/09/07 12:20:51;;;;;;;5.05;3.33;;;;;;;;;;10460699;27;20491;-65
2023/09/07 12:25:51;;;;;;;6.03;3.75;;;;;;;;;;10456941;27;20074;-65
2023/09/07 12:30:49;;;;;;;6.10;4.00;;;;;;;;;;10455818;27;20083;-65
2023/09/07 12:35:47;;;;;;;11.32;3.70;;;;;;;;;;10453268;27;20078;-65
2023/09/07 12:40:45;;;;;;;7.07;4.15;;;;;;;;;;10458285;27;20472;-65
2023/09/07 12:45:45;;;;;;;8.32;4.53;;;;;;;;;;10457277;27;20101;-65
2023/09/07 12:50:46;;;;;;;4.32;3.42;;;;;;;;;;10454180;27;20492;-65
2023/09/07 12:55:44;;;;;;;5.88;3.40;;;;;;;;;;10455079;27;20093;-65
2023/09/07 13:00:42;;;;;;;12.90;4.55;;;;;;;;;;10456784;27;20074;-65
2023/09/07 13:05:42;;;;;;;3.60;3.30;;;;;;;;;;10458356;27;20082;-65
2023/09/07 13:10:40;;;;;;;5.50;3.15;;;;;;;;;;10459655;27;20059;-65
2023/09/07 13:15:39;;;;;;;7.80;3.78;;;;;;;;;;10462375;27;20058;-65
2023/09/07 13:20:38;;;;;;;7.53;3.55;;;;;;;;;;10455889;27;20574;-65
2023/09/07 13:25:37;;;;;;;6.60;3.40;;;;;;;;;;10436158;27;20093;-65
2023/09/07 13:30:35;;;;;;;5.65;3.30;;;;;;;;;;10457927;27;20085;-65
2023/09/07 13:35:34;;;;;;;5.85;4.07;;;;;;;;;;10458291;27;20479;-65
2023/09/07 13:40:32;;;;;;;8.63;4.05;;;;;;;;;;10456416;27;20063;-65
2023/09/07 13:45:31;;;;;;;9.30;4.25;;;;;;;;;;10452630;27;20273;-65
2023/09/07 13:50:30;;;;;;;6.35;3.30;;;;;;;;;;10459571;27;20058;-66
2023/09/07 13:55:34;;;;;;;5.22;3.58;;;;;;;;;;10455789;27;20114;-65
2023/09/07 14:00:33;;;;;;;4.32;3.22;;;;;;;;;;10445193;27;20456;-65
2023/09/07 14:05:33;;;;;;;4.20;2.97;;;;;;;;;;10453295;27;20073;-65
2023/09/07 14:10:31;;;;;;;12.60;4.15;;;;;;;;;;10460323;27;20070;-65
2023/09/07 14:15:29;;;;;;;5.32;3.50;;;;;;;;;;10457228;27;20070;-65
2023/09/07 14:20:29;;;;;;;6.15;3.45;;;;;;;;;;10435712;27;20059;-65
2023/09/07 14:25:27;;;;;;;6.97;3.50;;;;;;;;;;10455499;27;20067;-65
2023/09/07 14:30:26;;;;;;;7.65;3.60;;;;;;;;;;10453819;27;20077;-63
2023/09/07 14:35:24;;;;;;;6.40;3.80;;;;;;;;;;10457928;27;20093;-65
2023/09/07 14:40:24;;;;;;;4.82;3.42;;;;;;;;;;10458730;27;20067;-65
2023/09/07 14:45:22;;;;;;;7.47;3.47;;;;;;;;;;10446987;27;20512;-65
2023/09/07 14:50:20;;;;;;;5.55;3.67;;;;;;;;;;10440528;27;20157;-67
2023/09/07 14:55:19;;;;;;;4.55;3.30;;;;;;;;;;10446250;27;20093;-65
2023/09/07 15:00:22;;;;;;;7.32;4.10;;;;;;;;;;10452276;27;20074;-65
2023/09/07 15:05:20;;;;;;;6.43;3.90;;;;;;;;;;10445699;27;20062;-64
2023/09/07 15:10:19;;;;;;;7.07;3.75;;;;;;;;;;10449155;27;20526;-64
2023/09/07 15:15:18;;;;;;;4.20;3.17;;;;;;;;;;10457194;27;20492;-64
2023/09/07 15:20:17;;;;;;;5.93;3.50;;;;;;;;;;10453393;27;20074;-64
2023/09/07 15:25:15;;;;;;;7.30;4.18;;;;;;;;;;10449729;27;20078;-64
2023/09/07 15:30:14;;;;;;;10.40;4.20;;;;;;;;;;10450318;27;20101;-65
2023/09/07 15:35:14;;;;;;;5.80;3.78;;;;;;;;;;10457326;27;20108;-64
2023/09/07 15:40:12;;;;;;;5.45;4.07;;;;;;;;;;10463212;27;20071;-65
2023/09/07 15:45:13;;;;;;;7.40;3.60;;;;;;;;;;10460790;27;20070;-65
2023/09/07 15:50:11;;;;;;;10.18;3.88;;;;;;;;;;10460353;27;20062;-64
2023/09/07 15:55:11;;;;;;;5.03;3.72;;;;;;;;;;10444881;27;20471;-64
2023/09/07 16:00:13;;;;;;;7.18;4.28;;;;;;;;;;10463060;27;20070;-64
2023/09/07 16:05:11;;;;;;;9.02;4.43;;;;;;;;;;10462984;27;20077;-63
2023/09/07 16:10:12;;;;;;;10.70;4.80;;;;;;;;;;10456780;27;20070;-65
2023/09/07 16:15:11;;;;;;;6.90;4.30;;;;;;;;;;10454332;27;20063;-64
2023/09/07 16:20:10;;;;;;;8.52;4.10;;;;;;;;;;10456892;27;20085;-65
2023/09/07 16:25:08;;;;;;;11.73;4.45;;;;;;;;;;10455722;27;20461;-64
2023/09/07 16:30:09;;;;;;;9.57;6.03;;;;;;;;;;10455167;27;20086;-64
2023/09/07 16:35:07;;;;;;;10.57;4.80;;;;;;;;;;10457410;27;20085;-64
2023/09/07 16:40:08;;;;;;;8.25;4.85;;;;;;;;;;10464660;27;20448;-63
2023/09/07 16:45:08;;;;;;;6.55;4.47;;;;;;;;;;10459514;27;20066;-63
2023/09/07 16:50:07;;;;;;;10.93;3.92;;;;;;;;;;10466596;27;20078;-63
2023/09/07 16:55:05;;;;;;;9.50;4.22;;;;;;;;;;10461346;27;20112;-63
2023/09/07 17:00:04;;;;;;;11.45;3.95;;;;;;;;;;10461555;27;20152;-64
2023/09/07 17:05:05;;;;;;;14.73;4.43;;;;;;;;;;10456350;27;20127;-63
2023/09/07 17:10:03;;;;;;;5.57;4.47;;;;;;;;;;10463566;27;20538;-63
2023/09/07 17:15:01;;;;;;;16.05;6.00;;;;;;;;;;10463185;27;20510;-63
2023/09/07 17:20:00;;;;;;;8.25;4.28;;;;;;;;;;10454906;27;20480;-63
2023/09/07 17:25:00;;;;;;;13.10;4.55;;;;;;;;;;10443417;27;20070;-63
2023/09/07 17:29:59;;;;;;;14.52;4.53;;;;;;;;;;10454940;27;20082;-63
2023/09/07 17:35:00;;;;;;;21.23;5.78;;;;;;;;;;10455650;27;20070;-63
2023/09/07 17:40:00;;;;;;;8.65;4.05;;;;;;;;;;10461056;27;20081;-63
2023/09/07 17:45:00;;;;;;;9.27;4.93;;;;;;;;;;10459482;27;20089;-63
2023/09/07 17:49:58;;;;;;;5.72;4.30;;;;;;;;;;10457506;27;20423;-63
2023/09/07 17:54:56;;;;;;;8.73;4.75;;;;;;;;;;10454294;27;20077;-63
2023/09/07 17:59:56;;;;;;;12.20;4.50;;;;;;;;;;10437174;27;20073;-63
2023/09/07 18:04:54;;;;;;;10.95;4.93;;;;;;;;;;10458473;27;20085;-63
2023/09/07 18:09:53;;;;;;;9.93;4.10;;;;;;;;;;10453419;27;20077;-64
2023/09/07 18:14:51;;;;;;;7.18;4.32;;;;;;;;;;10451378;27;20472;-63
2023/09/07 18:19:51;;;;;;;7.60;4.32;;;;;;;;;;10456751;27;20066;-63
2023/09/07 18:24:49;;;;;;;6.30;3.90;;;;;;;;;;10458758;27;20079;-63
2023/09/07 18:29:48;;;;;;;7.75;3.92;;;;;;;;;;10458823;27;20078;-63
2023/09/07 18:34:46;;;;;;;5.18;3.90;;;;;;;;;;10460989;27;20082;-63
2023/09/07 18:39:45;;;;;;;6.78;4.18;;;;;;;;;;10453806;27;20058;-64
2023/09/07 18:44:44;;;;;;;8.18;3.67;;;;;;;;;;10454199;27;20486;-63
2023/09/07 18:49:43;;;;;;;10.15;4.00;;;;;;;;;;10435593;27;20488;-64
2023/09/07 18:54:41;;;;;;;5.93;4.20;;;;;;;;;;10453312;27;20079;-63
2023/09/07 18:59:41;;;;;;;5.28;3.97;;;;;;;;;;10455410;27;20067;-63
2023/09/07 19:04:39;;;;;;;6.70;4.40;;;;;;;;;;10452333;27;20090;-63
2023/09/07 19:09:37;;;;;;;8.27;4.10;;;;;;;;;;10458029;27;20066;-64
2023/09/07 19:14:36;;;;;;;6.53;4.80;;;;;;;;;;10463816;27;20074;-64
2023/09/07 19:19:35;;;;;;;8.32;3.72;;;;;;;;;;10454571;27;20081;-63
2023/09/07 19:24:34;;;;;;;5.65;4.40;;;;;;;;;;10456652;27;20082;-63
2023/09/07 19:29:33;;;;;;;7.20;4.10;;;;;;;;;;10464443;27;20093;-64
2023/09/07 19:34:31;;;;;;;6.20;4.30;;;;;;;;;;10463391;27;20067;-64
2023/09/07 19:39:31;;;;;;;7.45;4.40;;;;;;;;;;10461132;27;20523;-64
2023/09/07 19:44:31;;;;;;;4.75;4.18;;;;;;;;;;10441224;27;20081;-64
2023/09/07 19:49:29;;;;;;;11.13;4.32;;;;;;;;;;10459217;27;20061;-62
2023/09/07 19:54:27;;;;;;;7.25;4.05;;;;;;;;;;10457995;27;20077;-64
2023/09/07 19:59:27;;;;;;;6.90;4.38;;;;;;;;;;10461913;27;20078;-63
2023/09/07 20:04:26;;;;;;;6.68;4.10;;;;;;;;;;10463217;27;20062;-64
2023/09/07 20:09:25;;;;;;;5.88;4.00;;;;;;;;;;10456628;27;20075;-64
2023/09/07 20:14:23;;;;;;;5.43;3.67;;;;;;;;;;10458436;27;20105;-63
2023/09/07 20:19:23;;;;;;;7.68;3.75;;;;;;;;;;10440468;27;20070;-63
2023/09/07 20:24:21;;;;;;;9.13;4.55;;;;;;;;;;10456554;27;20063;-63
2023/09/07 20:29:19;;;;;;;5.40;4.00;;;;;;;;;;10455017;27;20070;-63
2023/09/07 20:34:17;;;;;;;6.70;3.80;;;;;;;;;;10455063;27;20540;-63
2023/09/07 20:39:18;;;;;;;7.90;3.97;;;;;;;;;;10453308;27;20071;-63
2023/09/07 20:44:17;;;;;;;4.60;4.10;;;;;;;;;;10455646;27;20074;-63
2023/09/07 20:49:15;;;;;;;6.53;3.95;;;;;;;;;;10459475;27;20069;-62
2023/09/07 20:54:14;;;;;;;4.63;3.72;;;;;;;;;;10454875;27;20514;-63
2023/09/07 20:59:14;;;;;;;10.32;4.10;;;;;;;;;;10456608;27;20058;-62
2023/09/07 21:04:13;;;;;;;5.22;3.55;;;;;;;;;;10456654;27;20058;-62
2023/09/07 21:09:15;;;;;;;5.55;4.20;;;;;;;;;;10459547;27;20086;-62
2023/09/07 21:14:14;;;;;;;;;;;;;;;;;;10458360;27;20074;-62
2023/09/07 21:19:14;;;;;;;6.85;3.70;;;;;;;;;;10456064;27;19966;-63
2023/09/07 21:24:12;;;;;;;7.78;4.07;;;;;;;;;;10458517;27;20495;-63
2023/09/07 21:29:10;;;;;;;5.53;3.35;;;;;;;;;;10454834;27;20079;-65
2023/09/07 21:34:09;;;;;;;4.50;3.60;;;;;;;;;;10455059;27;20089;-62
2023/09/07 21:39:09;;;;;;;5.35;3.65;;;;;;;;;;10455500;27;20066;-64
2023/09/07 21:44:07;;;;;;;4.85;3.28;;;;;;;;;;10453608;27;20069;-63
2023/09/07 21:49:05;;;;;;;8.23;4.70;;;;;;;;;;10452598;27;20074;-63
2023/09/07 21:54:04;;;;;;;10.70;4.25;;;;;;;;;;10455229;27;20541;-64
2023/09/07 21:59:03;;;;;;;7.35;4.25;;;;;;;;;;10452259;27;20070;-64
2023/09/07 22:04:02;;;;;;;11.82;3.92;;;;;;;;;;10456153;27;20465;-64
2023/09/07 22:09:01;;;;;;;4.82;3.60;;;;;;;;;;10455065;27;20065;-63
2023/09/07 22:13:59;;;;;;;6.75;6.10;;;;;;;;;;10454945;27;20503;-63
2023/09/07 22:18:59;;;;;;;6.18;3.63;;;;;;;;;;10454895;27;20062;-63
2023/09/07 22:23:57;;;;;;;4.75;3.80;;;;;;;;;;10452746;27;20062;-63
2023/09/07 22:28:56;;;;;;;7.85;3.33;;;;;;;;;;10446246;27;20077;-64
2023/09/07 22:33:54;;;;;;;4.82;4.07;;;;;;;;;;10449517;27;20078;-64
2023/09/07 22:38:55;;;;;;;5.18;3.80;;;;;;;;;;10451740;27;20097;-64
2023/09/07 22:43:54;;;;;;;6.10;3.72;;;;;;;;;;10452678;27;20066;-63
2023/09/07 22:48:52;;;;;;;5.97;3.75;;;;;;;;;;10455643;27;20069;-63
2023/09/07 22:53:50;;;;;;;6.05;3.47;;;;;;;;;;10461291;27;20077;-63
2023/09/07 22:58:50;;;;;;;5.00;3.47;;;;;;;;;;10462120;27;20188;-63
2023/09/07 23:03:49;;;;;;;5.85;4.22;;;;;;;;;;10463944;27;20077;-64
2023/09/07 23:08:47;;;;;;;6.55;3.22;;;;;;;;;;10459262;27;20069;-62
2023/09/07 23:13:45;;;;;;;7.30;3.30;;;;;;;;;;10460534;27;20062;-63
2023/09/07 23:18:45;;;;;;;4.40;3.33;;;;;;;;;;10460660;27;20081;-62
2023/09/07 23:23:43;;;;;;;6.78;3.72;;;;;;;;;;10458968;27;20074;-63
2023/09/07 23:28:42;;;;;;;7.00;3.97;;;;;;;;;;10459100;27;20113;-64
2023/09/07 23:33:40;;;;;;;5.70;3.97;;;;;;;;;;10461323;27;20128;-63
2023/09/07 23:38:41;;;;;;;5.55;3.38;;;;;;;;;;10461714;27;20099;-64
2023/09/07 23:43:39;;;;;;;5.97;3.53;;;;;;;;;;10460926;27;20062;-63
2023/09/07 23:48:38;;;;;;;6.85;3.33;;;;;;;;;;10458336;27;20519;-63
2023/09/07 23:53:36;;;;;;;7.00;3.58;;;;;;;;;;10457729;27;20125;-63
2023/09/07 23:58:35;;;;;;;5.55;3.30;;;;;;;;;;10455872;27;20063;-63
